Time;durP1;ratioP1;P1;durP2;ratioP2;P2;SDS_P1;SDS_P2;PMS_P1;PMS_P2;Temp;Humidity;BMP_temperature;BMP_pressure;BME280_temperature;BME280_humidity;BME280_pressure;Samples;Min_cycle;Max_cycle;Signal;HPM_P1;HPM_P2
2023/12/14 00:02:16;;;;;;;7.60;3.60;;;;;8.00;100161.00;;;;5043950;28;20866;-69
2023/12/14 00:05:02;;;;;;;6.07;3.70;;;;;8.00;100152.00;;;;5043852;28;20312;-68
2023/12/14 00:07:50;;;;;;;6.50;4.20;;;;;7.90;100148.00;;;;5037941;28;20741;-69
2023/12/14 00:10:37;;;;;;;7.43;4.70;;;;;7.80;100168.00;;;;5038949;28;20621;-70
2023/12/14 00:13:23;;;;;;;11.03;5.70;;;;;7.80;100174.00;;;;5043212;28;20735;-68
2023/12/14 00:16:10;;;;;;;10.73;5.97;;;;;7.80;100184.00;;;;5036121;28;20226;-68
2023/12/14 00:18:56;;;;;;;11.80;5.47;;;;;7.60;100182.00;;;;5038374;28;21009;-68
2023/12/14 00:21:42;;;;;;;9.30;5.33;;;;;7.60;100184.00;;;;5036290;28;20231;-68
2023/12/14 00:24:30;;;;;;;9.50;5.43;;;;;7.50;100201.00;;;;5043511;28;20368;-70
2023/12/14 00:27:17;;;;;;;11.57;5.70;;;;;7.50;100190.00;;;;5037766;28;20235;-70
2023/12/14 00:30:04;;;;;;;9.60;5.57;;;;;7.60;100193.00;;;;5036541;28;20223;-69
2023/12/14 00:32:50;;;;;;;12.97;6.20;;;;;7.50;100199.00;;;;5035039;28;20232;-70
2023/12/14 00:35:36;;;;;;;12.13;5.97;;;;;7.50;100203.00;;;;5042237;28;20384;-68
2023/12/14 00:38:23;;;;;;;10.43;6.07;;;;;7.40;100208.00;;;;5034476;28;20357;-68
2023/12/14 00:41:11;;;;;;;11.00;6.00;;;;;7.40;100210.00;;;;5015004;28;20230;-68
2023/12/14 00:43:57;;;;;;;12.57;6.43;;;;;7.40;100220.00;;;;5032353;28;20396;-67
2023/12/14 00:46:44;;;;;;;12.40;6.20;;;;;7.40;100234.00;;;;5037387;28;20396;-68
2023/12/14 00:49:30;;;;;;;15.80;6.87;;;;;7.40;100222.00;;;;5036575;28;20233;-69
2023/12/14 00:52:16;;;;;;;10.47;5.97;;;;;7.50;100232.00;;;;5042806;28;20222;-66
2023/12/14 00:55:04;;;;;;;15.67;6.27;;;;;7.40;100234.00;;;;5038364;28;20319;-68
2023/12/14 00:57:52;;;;;;;13.60;6.60;;;;;7.30;100249.00;;;;5041768;28;20278;-68
2023/12/14 01:00:38;;;;;;;14.87;7.03;;;;;7.30;100259.00;;;;5042672;28;20258;-69
2023/12/14 01:03:24;;;;;;;12.60;5.40;;;;;7.30;100268.00;;;;5041034;28;20237;-71
2023/12/14 01:06:10;;;;;;;13.37;6.37;;;;;7.30;100272.00;;;;5038643;28;20232;-65
2023/12/14 01:08:57;;;;;;;13.60;6.97;;;;;7.20;100273.00;;;;5041390;28;20353;-67
2023/12/14 01:11:43;;;;;;;13.70;7.00;;;;;7.20;100282.00;;;;5039547;28;20372;-68
2023/12/14 01:14:31;;;;;;;10.53;5.53;;;;;7.20;100286.00;;;;5043421;28;20635;-69
2023/12/14 01:17:18;;;;;;;13.67;5.60;;;;;7.20;100291.00;;;;5033870;28;20233;-67
2023/12/14 01:20:06;;;;;;;11.57;5.57;;;;;7.20;100295.00;;;;5034389;28;20303;-70
2023/12/14 01:22:53;;;;;;;9.17;5.50;;;;;7.20;100305.00;;;;5038171;28;20227;-68
2023/12/14 01:25:39;;;;;;;10.93;5.77;;;;;7.20;100304.00;;;;5042498;28;20256;-68
2023/12/14 01:28:26;;;;;;;10.43;5.93;;;;;7.10;100301.00;;;;5036144;28;20279;-69
2023/12/14 01:31:14;;;;;;;8.97;5.30;;;;;7.20;100317.00;;;;5035654;28;20229;-68
2023/12/14 01:34:00;;;;;;;10.17;5.90;;;;;7.20;100320.00;;;;5052395;28;20256;-67
2023/12/14 01:36:46;;;;;;;11.70;6.10;;;;;7.30;100335.00;;;;5037919;28;20235;-68
2023/12/14 01:39:33;;;;;;;7.97;4.73;;;;;7.20;100335.00;;;;5041400;28;20238;-69
2023/12/14 01:42:19;;;;;;;12.93;6.20;;;;;7.30;100336.00;;;;5043109;28;20228;-67
2023/12/14 01:45:07;;;;;;;14.03;6.47;;;;;7.30;100345.00;;;;5037632;28;20242;-71
2023/12/14 01:47:54;;;;;;;12.40;6.60;;;;;7.30;100348.00;;;;5038400;28;20232;-66
2023/12/14 01:50:41;;;;;;;20.80;7.40;;;;;7.30;100356.00;;;;5043237;28;20362;-68
2023/12/14 01:53:27;;;;;;;12.47;6.70;;;;;7.20;100362.00;;;;5039543;28;20352;-67
2023/12/14 01:56:14;;;;;;;14.00;6.97;;;;;7.30;100370.00;;;;5047290;28;20252;-68
2023/12/14 01:59:00;;;;;;;17.60;6.20;;;;;7.30;100369.00;;;;5051216;28;20234;-67
2023/12/14 02:01:52;;;;;;;11.80;6.83;;;;;7.30;100392.00;;;;5035494;28;20233;-68
2023/12/14 02:04:40;;;;;;;14.37;6.50;;;;;7.20;100394.00;;;;5042347;28;20228;-69
2023/12/14 02:07:27;;;;;;;11.17;5.83;;;;;7.20;100409.00;;;;5040132;28;20256;-71
2023/12/14 02:10:13;;;;;;;12.43;5.37;;;;;7.00;100405.00;;;;5040187;28;20233;-66
2023/12/14 02:13:02;;;;;;;13.10;7.00;;;;;7.00;100409.00;;;;5043043;28;20251;-67
2023/12/14 02:15:48;;;;;;;10.97;5.70;;;;;7.10;100412.00;;;;5046558;28;20721;-68
2023/12/14 02:18:34;;;;;;;12.20;5.63;;;;;7.10;100405.00;;;;5044105;28;20239;-65
2023/12/14 02:21:22;;;;;;;12.57;5.93;;;;;7.10;100408.00;;;;5043709;28;20630;-68
2023/12/14 02:24:10;;;;;;;10.33;5.97;;;;;7.00;100412.00;;;;5039755;28;20587;-68
2023/12/14 02:26:57;;;;;;;10.60;6.07;;;;;7.00;100418.00;;;;5040638;28;20874;-66
2023/12/14 02:29:49;;;;;;;12.10;6.67;;;;;7.00;100417.00;;;;5045999;28;20228;-68
2023/12/14 02:32:35;;;;;;;12.33;6.63;;;;;6.90;100419.00;;;;5045862;28;20225;-67
2023/12/14 02:35:22;;;;;;;12.60;6.47;;;;;6.90;100421.00;;;;5039574;28;20233;-67
2023/12/14 02:38:09;;;;;;;13.13;5.90;;;;;6.90;100425.00;;;;5035520;28;20773;-69
2023/12/14 02:40:56;;;;;;;11.93;7.13;;;;;6.90;100419.00;;;;5036048;28;20770;-68
2023/12/14 02:43:43;;;;;;;13.37;5.63;;;;;6.90;100429.00;;;;5035795;28;20601;-67
2023/12/14 02:46:29;;;;;;;12.97;5.80;;;;;6.90;100433.00;;;;5038490;28;20613;-66
2023/12/14 02:49:16;;;;;;;11.63;6.27;;;;;7.00;100443.00;;;;5042435;28;20300;-70
2023/12/14 02:52:02;;;;;;;11.93;5.80;;;;;6.90;100439.00;;;;5034518;28;20237;-67
2023/12/14 02:54:49;;;;;;;10.87;6.27;;;;;7.00;100437.00;;;;5044303;28;20288;-68
2023/12/14 02:57:36;;;;;;;13.37;6.63;;;;;7.00;100450.00;;;;5043572;28;20312;-69
2023/12/14 03:00:23;;;;;;;12.43;6.53;;;;;7.10;100461.00;;;;5035139;28;20721;-67
2023/12/14 03:03:09;;;;;;;15.00;7.43;;;;;6.90;100457.00;;;;5043125;28;20217;-68
2023/12/14 03:05:55;;;;;;;13.20;7.03;;;;;7.00;100467.00;;;;5046026;28;20225;-69
2023/12/14 03:08:42;;;;;;;13.07;6.40;;;;;6.70;100478.00;;;;5046242;28;20249;-69
2023/12/14 03:11:28;;;;;;;10.90;6.33;;;;;6.80;100480.00;;;;5043046;28;20439;-67
2023/12/14 03:14:16;;;;;;;13.33;6.47;;;;;6.80;100476.00;;;;5041735;28;20232;-65
2023/12/14 03:17:02;;;;;;;17.17;7.33;;;;;6.70;100495.00;;;;5038313;28;20311;-68
2023/12/14 03:19:49;;;;;;;13.03;6.87;;;;;6.70;100490.00;;;;5044676;28;20228;-67
2023/12/14 03:22:35;;;;;;;9.00;5.50;;;;;6.80;100495.00;;;;5042989;28;20613;-68
2023/12/14 03:25:22;;;;;;;16.30;5.93;;;;;6.70;100502.00;;;;5045057;28;20432;-71
2023/12/14 03:28:09;;;;;;;12.07;6.20;;;;;6.70;100500.00;;;;5044470;28;20256;-67
2023/12/14 03:30:56;;;;;;;9.73;5.67;;;;;6.70;100512.00;;;;5044403;28;20286;-68
2023/12/14 03:33:43;;;;;;;10.67;5.27;;;;;6.60;100507.00;;;;5041278;28;20371;-67
2023/12/14 03:36:30;;;;;;;10.97;5.40;;;;;6.60;100524.00;;;;5040290;28;20819;-69
2023/12/14 03:39:17;;;;;;;11.13;5.70;;;;;6.80;100534.00;;;;5044529;28;20236;-66
2023/12/14 03:42:03;;;;;;;9.03;5.17;;;;;6.80;100538.00;;;;5044841;28;20220;-68
2023/12/14 03:44:50;;;;;;;15.67;6.17;;;;;6.80;100550.00;;;;5044254;28;20319;-69
2023/12/14 03:47:38;;;;;;;10.83;5.37;;;;;6.80;100542.00;;;;5044199;28;20613;-67
2023/12/14 03:50:24;;;;;;;11.60;4.60;;;;;6.80;100537.00;;;;5044384;28;20228;-68
2023/12/14 03:53:11;;;;;;;9.30;4.77;;;;;6.80;100554.00;;;;5037432;28;20287;-68
2023/12/14 03:55:58;;;;;;;10.97;6.10;;;;;6.80;100550.00;;;;5044495;28;20256;-68
2023/12/14 03:58:44;;;;;;;15.93;6.30;;;;;6.80;100552.00;;;;5042103;28;20240;-68
2023/12/14 04:01:30;;;;;;;10.03;5.47;;;;;6.70;100561.00;;;;5044581;28;20310;-66
2023/12/14 04:04:18;;;;;;;14.10;6.13;;;;;6.70;100558.00;;;;5044038;28;20332;-68
2023/12/14 04:07:05;;;;;;;13.27;5.90;;;;;6.80;100563.00;;;;5045105;28;20224;-68
2023/12/14 04:09:51;;;;;;;11.00;5.60;;;;;6.70;100570.00;;;;5042861;28;20244;-68
2023/12/14 04:12:38;;;;;;;12.57;6.10;;;;;6.70;100587.00;;;;5043615;28;20602;-68
2023/12/14 04:15:24;;;;;;;13.30;6.30;;;;;6.70;100581.00;;;;5047274;28;20224;-68
2023/12/14 04:18:11;;;;;;;14.43;6.83;;;;;6.80;100595.00;;;;5039989;28;20230;-69
2023/12/14 04:20:59;;;;;;;14.07;6.37;;;;;6.80;100592.00;;;;5044832;28;20347;-69
2023/12/14 04:23:46;;;;;;;13.63;6.50;;;;;6.80;100595.00;;;;5033953;28;20367;-68
2023/12/14 04:26:32;;;;;;;12.03;6.13;;;;;6.60;100602.00;;;;5038033;28;20295;-68
2023/12/14 04:29:18;;;;;;;13.47;5.60;;;;;6.70;100605.00;;;;5041393;28;20268;-68
2023/12/14 04:32:06;;;;;;;13.27;5.93;;;;;6.70;100612.00;;;;5043897;28;20237;-69
2023/12/14 04:34:52;;;;;;;13.73;7.10;;;;;6.60;100619.00;;;;5044153;28;20247;-68
2023/12/14 04:37:40;;;;;;;14.23;7.43;;;;;6.70;100621.00;;;;5042491;28;20714;-67
2023/12/14 04:40:26;;;;;;;14.13;6.93;;;;;6.70;100629.00;;;;5038923;28;21133;-67
2023/12/14 04:43:13;;;;;;;13.13;6.93;;;;;6.70;100627.00;;;;5044570;28;20303;-69
2023/12/14 04:45:59;;;;;;;11.10;6.73;;;;;6.60;100634.00;;;;5043303;28;20314;-67
2023/12/14 04:48:46;;;;;;;11.80;6.33;;;;;6.70;100637.00;;;;5044397;28;20306;-68
2023/12/14 04:51:32;;;;;;;11.87;6.37;;;;;6.70;100647.00;;;;5039571;28;20731;-71
2023/12/14 04:54:20;;;;;;;10.40;6.10;;;;;6.70;100651.00;;;;5039699;28;20721;-69
2023/12/14 04:57:09;;;;;;;12.90;6.37;;;;;6.60;100649.00;;;;5042048;28;20232;-68
2023/12/14 04:59:55;;;;;;;9.87;5.40;;;;;6.60;100655.00;;;;5044028;28;20386;-67
2023/12/14 05:02:41;;;;;;;10.03;4.63;;;;;6.50;100655.00;;;;5043330;28;20297;-67
2023/12/14 05:05:27;;;;;;;13.57;5.23;;;;;6.40;100651.00;;;;5041414;28;20248;-68
2023/12/14 05:08:14;;;;;;;10.80;5.73;;;;;6.50;100657.00;;;;5046878;28;20651;-67
2023/12/14 05:11:03;;;;;;;9.47;5.20;;;;;6.40;100668.00;;;;5047254;28;20236;-65
2023/12/14 05:13:49;;;;;;;9.50;4.77;;;;;6.30;100664.00;;;;5052896;28;20307;-69
2023/12/14 05:16:35;;;;;;;9.00;5.07;;;;;6.40;100664.00;;;;5047058;28;20233;-70
2023/12/14 05:19:21;;;;;;;9.67;5.70;;;;;6.40;100676.00;;;;5033853;28;20227;-66
2023/12/14 05:22:07;;;;;;;12.37;5.83;;;;;6.40;100677.00;;;;5047154;28;20228;-69
2023/12/14 05:24:53;;;;;;;19.47;6.00;;;;;6.40;100676.00;;;;5047263;28;20228;-70
2023/12/14 05:27:42;;;;;;;10.60;5.73;;;;;6.40;100683.00;;;;5038754;28;20221;-69
2023/12/14 05:30:28;;;;;;;9.93;5.53;;;;;6.30;100684.00;;;;5047489;28;20268;-69
2023/12/14 05:33:15;;;;;;;10.93;5.83;;;;;6.30;100688.00;;;;5039949;28;20773;-67
2023/12/14 05:36:01;;;;;;;8.73;5.03;;;;;6.30;100679.00;;;;5042931;28;20228;-69
2023/12/14 05:38:48;;;;;;;9.67;5.47;;;;;6.40;100695.00;;;;5044646;28;20337;-68
2023/12/14 05:41:34;;;;;;;11.40;5.63;;;;;6.40;100690.00;;;;5040867;28;20236;-69
2023/12/14 05:44:22;;;;;;;12.77;6.00;;;;;6.30;100694.00;;;;5042336;28;20370;-69
2023/12/14 05:47:09;;;;;;;12.83;6.60;;;;;6.40;100699.00;;;;5046577;28;22456;-68
2023/12/14 05:49:55;;;;;;;10.23;5.50;;;;;6.40;100707.00;;;;5042381;28;20730;-68
2023/12/14 05:52:41;;;;;;;11.17;6.30;;;;;6.50;100712.00;;;;5035616;28;20260;-68
2023/12/14 05:55:28;;;;;;;9.20;6.10;;;;;6.40;100720.00;;;;5046897;28;20276;-68
2023/12/14 05:58:14;;;;;;;11.37;5.50;;;;;6.40;100724.00;;;;5038274;28;20213;-68
2023/12/14 06:01:02;;;;;;;15.53;5.77;;;;;6.30;100731.00;;;;5044426;28;20237;-70
2023/12/14 06:03:49;;;;;;;10.73;5.57;;;;;6.40;100727.00;;;;5046494;28;20235;-68
2023/12/14 06:06:35;;;;;;;12.80;6.20;;;;;6.30;100742.00;;;;5043370;28;20734;-69
2023/12/14 06:09:26;;;;;;;11.07;5.90;;;;;6.40;100745.00;;;;5039225;28;20236;-68
2023/12/14 06:12:13;;;;;;;11.43;6.67;;;;;6.40;100758.00;;;;5041977;28;20224;-70
2023/12/14 06:14:59;;;;;;;12.37;6.20;;;;;6.40;100767.00;;;;5040566;28;20240;-68
2023/12/14 06:17:47;;;;;;;12.17;6.73;;;;;6.50;100773.00;;;;5042700;28;20225;-68
2023/12/14 06:20:33;;;;;;;10.77;5.47;;;;;6.40;100783.00;;;;5040343;28;20303;-68
2023/12/14 06:23:20;;;;;;;12.93;6.37;;;;;6.40;100787.00;;;;5044387;28;20226;-68
2023/12/14 06:26:06;;;;;;;11.90;5.47;;;;;6.40;100791.00;;;;5044273;28;20243;-69
2023/12/14 06:28:53;;;;;;;8.80;5.93;;;;;6.50;100792.00;;;;5050716;28;20355;-70
2023/12/14 06:31:39;;;;;;;9.87;5.87;;;;;6.50;100797.00;;;;5038169;28;20233;-70
2023/12/14 06:34:27;;;;;;;12.07;6.40;;;;;6.50;100797.00;;;;5046422;28;20242;-70
2023/12/14 06:37:14;;;;;;;14.30;6.40;;;;;6.60;100820.00;;;;5044718;28;20228;-69
2023/12/14 06:40:00;;;;;;;12.80;6.63;;;;;6.60;100825.00;;;;5036625;28;20266;-69
2023/12/14 06:42:47;;;;;;;12.33;6.60;;;;;6.50;100836.00;;;;5043263;28;20226;-66
2023/12/14 06:45:33;;;;;;;9.63;5.07;;;;;6.50;100834.00;;;;5039096;28;20247;-68
2023/12/14 06:48:20;;;;;;;11.20;5.97;;;;;6.60;100844.00;;;;5037628;28;20232;-69
2023/12/14 06:51:09;;;;;;;12.27;5.10;;;;;6.60;100844.00;;;;5045468;28;20232;-69
2023/12/14 06:53:55;;;;;;;10.77;5.87;;;;;6.60;100855.00;;;;5044581;28;20910;-72
2023/12/14 06:56:42;;;;;;;19.13;6.47;;;;;6.50;100843.00;;;;5038674;28;20254;-69
2023/12/14 06:59:28;;;;;;;10.50;5.67;;;;;6.50;100848.00;;;;5037977;28;20232;-70
2023/12/14 07:02:15;;;;;;;11.77;5.63;;;;;6.60;100854.00;;;;5044603;28;20696;-70
2023/12/14 07:05:01;;;;;;;11.17;6.20;;;;;6.50;100855.00;;;;5041456;28;20298;-69
2023/12/14 07:07:49;;;;;;;10.70;5.93;;;;;6.50;100860.00;;;;5044569;28;20232;-70
2023/12/14 07:10:35;;;;;;;14.47;6.03;;;;;6.50;100866.00;;;;5045225;28;20578;-69
2023/12/14 07:13:21;;;;;;;9.67;5.47;;;;;6.50;100871.00;;;;5045289;28;20229;-65
2023/12/14 07:16:10;;;;;;;14.40;6.60;;;;;6.40;100879.00;;;;5038350;28;20309;-68
2023/12/14 07:18:56;;;;;;;13.67;5.97;;;;;6.40;100886.00;;;;5044010;28;20232;-68
2023/12/14 07:21:43;;;;;;;12.00;7.00;;;;;6.40;100891.00;;;;5039959;28;20270;-69
2023/12/14 07:24:30;;;;;;;13.57;6.83;;;;;6.50;100896.00;;;;5035186;28;20244;-69
2023/12/14 07:27:29;;;;;;;10.07;5.50;;;;;6.50;100903.00;;;;5043202;28;20252;-70
2023/12/14 07:30:16;;;;;;;12.53;6.47;;;;;6.50;100909.00;;;;5042938;28;20396;-69
2023/12/14 07:33:02;;;;;;;10.80;6.27;;;;;6.60;100923.00;;;;5046883;28;20224;-68
2023/12/14 07:35:50;;;;;;;10.80;5.80;;;;;6.60;100922.00;;;;5037523;28;20368;-68
2023/12/14 07:38:36;;;;;;;11.13;5.70;;;;;6.60;100937.00;;;;5038821;28;20240;-66
2023/12/14 07:41:27;;;;;;;13.53;6.93;;;;;6.60;100944.00;;;;5043694;28;20705;-65
2023/12/14 07:44:13;;;;;;;12.63;6.47;;;;;6.60;100939.00;;;;5043928;28;20237;-69
2023/12/14 07:47:01;;;;;;;19.77;7.80;;;;;6.40;100947.00;;;;5045192;28;20724;-68
2023/12/14 07:49:48;;;;;;;12.27;6.87;;;;;6.40;100952.00;;;;5039264;28;20298;-70
2023/12/14 07:52:34;;;;;;;14.57;7.03;;;;;6.40;100961.00;;;;5043192;28;20928;-69
2023/12/14 07:55:22;;;;;;;14.10;7.50;;;;;6.50;100963.00;;;;5044175;28;20822;-70
2023/12/14 07:58:09;;;;;;;13.60;7.67;;;;;6.40;100969.00;;;;5044398;28;20278;-69
2023/12/14 08:00:56;;;;;;;15.20;7.20;;;;;6.50;100962.00;;;;5040364;28;20252;-68
2023/12/14 08:03:42;;;;;;;14.70;7.43;;;;;6.40;100977.00;;;;5040541;28;20605;-68
2023/12/14 08:06:28;;;;;;;14.97;7.47;;;;;6.50;100966.00;;;;5040274;28;20272;-69
2023/12/14 08:09:15;;;;;;;16.57;7.47;;;;;6.40;100961.00;;;;5039895;28;20240;-70
2023/12/14 08:12:01;;;;;;;16.17;7.53;;;;;6.30;100985.00;;;;5043892;28;20240;-70
2023/12/14 08:14:49;;;;;;;15.33;7.30;;;;;6.50;100991.00;;;;5036666;28;20232;-69
2023/12/14 08:17:35;;;;;;;14.00;7.63;;;;;6.50;100992.00;;;;5043018;28;20232;-71
2023/12/14 08:20:22;;;;;;;12.27;7.13;;;;;6.50;100997.00;;;;5036782;28;20237;-69
2023/12/14 08:23:08;;;;;;;14.60;8.20;;;;;6.50;101004.00;;;;5033168;28;20324;-68
2023/12/14 08:25:56;;;;;;;14.27;7.87;;;;;6.40;101013.00;;;;5039006;28;20240;-68
2023/12/14 08:28:45;;;;;;;19.17;8.57;;;;;6.40;101024.00;;;;5032582;28;20245;-70
2023/12/14 08:31:33;;;;;;;17.43;8.17;;;;;6.50;101032.00;;;;5040985;28;20232;-67
2023/12/14 08:34:19;;;;;;;17.33;8.40;;;;;6.50;101040.00;;;;5040463;28;20237;-68
2023/12/14 08:37:06;;;;;;;17.63;8.00;;;;;6.50;101047.00;;;;5039702;28;20220;-68
2023/12/14 08:39:52;;;;;;;19.40;8.20;;;;;6.40;101046.00;;;;5035972;28;20228;-68
2023/12/14 08:42:41;;;;;;;14.30;8.27;;;;;6.40;101061.00;;;;5043157;28;20236;-69
2023/12/14 08:45:28;;;;;;;16.33;7.93;;;;;6.40;101080.00;;;;5043664;28;20233;-70
2023/12/14 08:48:16;;;;;;;14.33;7.53;;;;;6.40;101063.00;;;;5041290;28;20302;-68
2023/12/14 08:51:04;;;;;;;19.87;7.50;;;;;6.30;101069.00;;;;5043739;28;20242;-70
2023/12/14 08:53:50;;;;;;;18.57;7.67;;;;;6.40;101072.00;;;;5042556;28;20232;-68
2023/12/14 08:56:36;;;;;;;17.70;8.83;;;;;6.50;101077.00;;;;5036865;28;20228;-69
2023/12/14 08:59:22;;;;;;;14.13;7.17;;;;;6.40;101088.00;;;;5032422;28;20237;-67
2023/12/14 09:02:09;;;;;;;15.87;7.43;;;;;6.40;101093.00;;;;5040976;28;20713;-66
2023/12/14 09:04:56;;;;;;;16.20;7.73;;;;;6.40;101100.00;;;;5044124;28;20231;-67
2023/12/14 09:07:43;;;;;;;18.63;8.60;;;;;6.30;101108.00;;;;5037269;28;20303;-69
2023/12/14 09:10:30;;;;;;;12.37;6.77;;;;;6.30;101107.00;;;;5045316;28;20236;-68
2023/12/14 09:13:17;;;;;;;12.33;5.33;;;;;6.40;101122.00;;;;5046217;28;20605;-68
2023/12/14 09:16:03;;;;;;;13.03;6.83;;;;;6.30;101118.00;;;;5041339;28;20236;-68
2023/12/14 09:18:49;;;;;;;16.10;7.53;;;;;6.30;101115.00;;;;5035260;28;20307;-68
2023/12/14 09:21:37;;;;;;;15.47;6.77;;;;;6.40;101121.00;;;;5041035;28;20322;-69
2023/12/14 09:24:31;;;;;;;14.63;7.00;;;;;6.40;101119.00;;;;5043381;28;20234;-68
2023/12/14 09:27:18;;;;;;;19.83;9.53;;;;;6.40;101125.00;;;;5036881;28;20229;-67
2023/12/14 09:30:05;;;;;;;14.90;8.33;;;;;6.40;101133.00;;;;5034256;28;20233;-68
2023/12/14 09:32:52;;;;;;;13.90;7.17;;;;;6.40;101136.00;;;;5037303;28;20229;-68
2023/12/14 09:35:39;;;;;;;15.13;7.50;;;;;6.40;101122.00;;;;5034825;28;20278;-69
2023/12/14 09:38:27;;;;;;;14.93;6.80;;;;;6.40;101140.00;;;;5041639;28;20244;-69
2023/12/14 09:41:13;;;;;;;13.30;6.83;;;;;6.40;101138.00;;;;5041355;28;20344;-70
2023/12/14 09:44:01;;;;;;;15.43;7.50;;;;;6.40;101147.00;;;;5041304;28;20241;-68
2023/12/14 09:46:50;;;;;;;15.07;7.37;;;;;6.50;101132.00;;;;5043106;28;20224;-68
2023/12/14 09:49:37;;;;;;;15.67;6.40;;;;;6.50;101143.00;;;;5044514;28;20625;-69
2023/12/14 09:52:24;;;;;;;17.87;7.10;;;;;6.60;101152.00;;;;5043196;28;20343;-68
2023/12/14 09:55:12;;;;;;;17.07;7.13;;;;;6.60;101163.00;;;;5046781;28;20249;-68
2023/12/14 09:57:58;;;;;;;15.10;7.73;;;;;6.50;101163.00;;;;5043519;28;20228;-69
2023/12/14 10:00:44;;;;;;;17.03;7.33;;;;;6.50;101153.00;;;;5033065;28;20292;-68
2023/12/14 10:03:32;;;;;;;21.87;8.10;;;;;6.40;101160.00;;;;5045683;28;20241;-68
2023/12/14 10:06:19;;;;;;;14.93;7.70;;;;;6.40;101176.00;;;;5044822;28;20774;-68
2023/12/14 10:09:09;;;;;;;19.53;8.50;;;;;6.40;101175.00;;;;5023424;28;20233;-68
2023/12/14 10:12:06;;;;;;;20.83;6.67;;;;;6.40;101179.00;;;;5043895;28;20745;-68
2023/12/14 10:15:01;;;;;;;18.83;8.27;;;;;6.50;101188.00;;;;5044830;28;20340;-70
2023/12/14 10:17:53;;;;;;;15.73;8.07;;;;;6.50;101180.00;;;;5043038;28;20225;-72
2023/12/14 10:20:40;;;;;;;17.20;8.30;;;;;6.50;101191.00;;;;5047655;28;20232;-67
2023/12/14 10:23:28;;;;;;;15.00;6.63;;;;;6.50;101199.00;;;;5045749;28;20236;-69
2023/12/14 10:26:15;;;;;;;14.33;7.27;;;;;6.50;101201.00;;;;5039530;28;20312;-68
2023/12/14 10:29:04;;;;;;;18.23;7.90;;;;;6.50;101209.00;;;;5036046;28;20283;-68
2023/12/14 10:31:52;;;;;;;18.00;8.37;;;;;6.60;101216.00;;;;5041767;28;20259;-67
2023/12/14 10:34:39;;;;;;;13.73;7.00;;;;;6.60;101226.00;;;;5034846;28;20282;-69
2023/12/14 10:37:26;;;;;;;13.17;7.70;;;;;6.50;101229.00;;;;5042067;28;20272;-68
2023/12/14 10:40:14;;;;;;;15.23;6.90;;;;;6.40;101235.00;;;;5035496;28;20606;-67
2023/12/14 10:43:01;;;;;;;14.43;7.03;;;;;6.40;101242.00;;;;5043050;28;20897;-68
2023/12/14 10:45:49;;;;;;;13.30;7.20;;;;;6.50;101237.00;;;;5042251;28;20221;-69
2023/12/14 10:48:36;;;;;;;16.70;7.23;;;;;6.60;101244.00;;;;5044130;28;20360;-69
2023/12/14 10:51:25;;;;;;;18.67;7.67;;;;;6.50;101239.00;;;;5034882;28;20229;-70
2023/12/14 10:54:12;;;;;;;12.67;6.73;;;;;6.60;101242.00;;;;5041226;28;20706;-69
2023/12/14 10:56:59;;;;;;;13.57;7.27;;;;;6.50;101240.00;;;;5046308;28;20260;-69
2023/12/14 10:59:45;;;;;;;14.37;7.90;;;;;6.50;101243.00;;;;5038407;28;20721;-68
2023/12/14 11:02:40;;;;;;;14.27;7.43;;;;;6.50;101241.00;;;;5045303;28;20236;-68
2023/12/14 11:05:29;;;;;;;14.07;7.20;;;;;6.60;101250.00;;;;5042013;28;20237;-67
2023/12/14 11:08:17;;;;;;;14.87;7.13;;;;;6.60;101245.00;;;;5041851;28;20232;-68
2023/12/14 11:11:10;;;;;;;14.63;7.47;;;;;6.60;101238.00;;;;5045685;28;20318;-69
2023/12/14 11:13:56;;;;;;;14.53;7.40;;;;;6.60;101251.00;;;;5035670;28;20240;-69
2023/12/14 11:16:46;;;;;;;15.37;7.23;;;;;6.70;101259.00;;;;5036506;28;20236;-70
2023/12/14 11:19:34;;;;;;;15.90;7.50;;;;;6.60;101263.00;;;;5037770;28;20222;-71
2023/12/14 11:22:25;;;;;;;15.37;6.97;;;;;6.50;101272.00;;;;5046055;28;20223;-72
2023/12/14 11:25:11;;;;;;;16.27;7.57;;;;;6.60;101272.00;;;;5029360;28;20715;-70
2023/12/14 11:28:04;;;;;;;15.00;7.53;;;;;6.60;101273.00;;;;5043917;28;20228;-70
2023/12/14 11:30:51;;;;;;;15.33;7.53;;;;;6.60;101290.00;;;;5045149;28;20233;-70
2023/12/14 11:33:44;;;;;;;18.30;7.57;;;;;6.60;101294.00;;;;5043901;28;20272;-69
2023/12/14 11:36:31;;;;;;;18.77;7.60;;;;;6.70;101298.00;;;;5045449;28;20232;-72
2023/12/14 11:39:20;;;;;;;16.30;7.23;;;;;6.70;101301.00;;;;5045212;28;20597;-70
2023/12/14 11:42:08;;;;;;;17.50;6.43;;;;;6.60;101303.00;;;;5045793;28;20232;-70
2023/12/14 11:44:56;;;;;;;15.43;7.00;;;;;6.70;101301.00;;;;5045786;28;20220;-69
2023/12/14 11:47:43;;;;;;;14.80;7.87;;;;;6.70;101308.00;;;;5041820;28;20224;-71
2023/12/14 11:50:29;;;;;;;13.97;6.90;;;;;6.70;101311.00;;;;5043958;28;20247;-70
2023/12/14 11:53:19;;;;;;;13.57;6.67;;;;;6.70;101306.00;;;;5047567;28;20232;-71
2023/12/14 11:56:06;;;;;;;15.00;6.93;;;;;6.60;101301.00;;;;5044335;28;20232;-69
2023/12/14 11:58:54;;;;;;;13.20;6.87;;;;;6.70;101315.00;;;;5037515;28;20791;-70
2023/12/14 12:01:40;;;;;;;17.40;7.63;;;;;6.70;101313.00;;;;5044345;28;20368;-70
2023/12/14 12:04:28;;;;;;;18.47;8.97;;;;;6.70;101310.00;;;;5045240;28;20757;-71
2023/12/14 12:07:14;;;;;;;15.57;8.07;;;;;6.70;101303.00;;;;5043312;28;20384;-68
2023/12/14 12:10:02;;;;;;;17.67;7.80;;;;;6.70;101310.00;;;;5038478;28;20279;-70
2023/12/14 12:12:48;;;;;;;17.57;8.47;;;;;6.70;101306.00;;;;5038477;28;20232;-69
2023/12/14 12:15:36;;;;;;;13.57;7.80;;;;;6.70;101305.00;;;;5044080;28;20764;-69
2023/12/14 12:18:23;;;;;;;17.83;7.37;;;;;6.70;101292.00;;;;5047164;28;20713;-68
2023/12/14 12:21:09;;;;;;;14.53;7.67;;;;;6.70;101300.00;;;;5037368;28;20233;-71
2023/12/14 12:23:55;;;;;;;14.13;7.07;;;;;6.70;101300.00;;;;5044682;28;20232;-67
2023/12/14 12:26:43;;;;;;;14.70;7.57;;;;;6.60;101306.00;;;;5039792;28;20227;-71
2023/12/14 12:29:29;;;;;;;14.33;7.00;;;;;6.70;101302.00;;;;5041213;28;20249;-70
2023/12/14 12:32:16;;;;;;;14.23;7.27;;;;;6.60;101307.00;;;;5041499;28;20844;-71
2023/12/14 12:35:02;;;;;;;13.40;6.57;;;;;6.60;101319.00;;;;5044570;28;20240;-71
2023/12/14 12:37:53;;;;;;;12.80;6.73;;;;;6.70;101329.00;;;;5041790;28;20225;-71
2023/12/14 12:40:39;;;;;;;18.13;8.40;;;;;6.60;101324.00;;;;5043456;28;20244;-73
2023/12/14 12:43:27;;;;;;;13.77;7.50;;;;;6.60;101323.00;;;;5043905;28;20286;-69
2023/12/14 12:46:13;;;;;;;14.40;7.67;;;;;6.60;101327.00;;;;5029122;28;20233;-70
2023/12/14 12:49:00;;;;;;;14.17;7.13;;;;;6.60;101335.00;;;;5040066;28;20244;-68
2023/12/14 12:51:47;;;;;;;15.70;7.93;;;;;6.50;101331.00;;;;5044753;28;20271;-71
2023/12/14 12:54:34;;;;;;;19.67;9.47;;;;;6.50;101340.00;;;;5041018;28;20667;-70
2023/12/14 12:57:21;;;;;;;14.90;7.70;;;;;6.50;101347.00;;;;5043437;28;20865;-72
2023/12/14 13:00:11;;;;;;;18.83;8.47;;;;;6.40;101356.00;;;;5037844;28;20286;-69
2023/12/14 13:03:00;;;;;;;20.93;7.53;;;;;6.40;101359.00;;;;5040467;28;20927;-71
2023/12/14 13:05:47;;;;;;;14.77;7.20;;;;;6.40;101368.00;;;;5042639;28;20236;-71
2023/12/14 13:08:34;;;;;;;16.67;7.90;;;;;6.30;101370.00;;;;5045925;28;20232;-70
2023/12/14 13:11:20;;;;;;;14.30;7.63;;;;;6.30;101364.00;;;;5044073;28;20224;-71
2023/12/14 13:14:07;;;;;;;16.27;8.23;;;;;6.30;101366.00;;;;5037438;28;20722;-69
2023/12/14 13:16:55;;;;;;;15.97;7.87;;;;;6.40;101373.00;;;;5043297;28;20228;-70
2023/12/14 13:19:42;;;;;;;12.87;7.80;;;;;6.40;101368.00;;;;5040815;28;20229;-70
2023/12/14 13:22:28;;;;;;;16.53;7.50;;;;;6.40;101375.00;;;;5039569;28;20290;-71
2023/12/14 13:25:17;;;;;;;20.50;9.53;;;;;6.30;101381.00;;;;5039673;28;20610;-71
2023/12/14 13:28:04;;;;;;;16.70;7.43;;;;;6.30;101388.00;;;;5038150;28;20346;-70
2023/12/14 13:30:51;;;;;;;14.90;7.80;;;;;6.30;101387.00;;;;5048053;28;20220;-71
2023/12/14 13:33:38;;;;;;;15.63;7.40;;;;;6.30;101392.00;;;;5047947;28;20963;-70
2023/12/14 13:36:25;;;;;;;18.00;8.07;;;;;6.30;101392.00;;;;5042665;28;20360;-71
2023/12/14 13:39:11;;;;;;;17.17;7.57;;;;;6.30;101407.00;;;;5048078;28;20225;-70
2023/12/14 13:41:57;;;;;;;14.70;6.77;;;;;6.30;101409.00;;;;5045473;28;21091;-71
2023/12/14 13:44:44;;;;;;;18.67;9.23;;;;;6.30;101416.00;;;;5047038;28;20243;-70
2023/12/14 13:47:30;;;;;;;14.60;7.70;;;;;6.30;101407.00;;;;5043064;28;20751;-69